Terminal Aerodrome Forecast
Issued by NWS

Home | Current Version | Previous Version | Text Only | Print | Product List | Glossary On
Versions: 1 2 3 4 5 6 7 8 9 10 11 12 13 14 15 16 17
000
FTUS43 KIWX 011508 AAA
TAFSBN
TAF AMD
KSBN 011508Z 0115/0212 04007KT 2SM BR OVC005
     FM011630 04008KT 4SM BR OVC006
     FM011900 03009KT 6SM BR BKN008 OVC015
     FM012200 03010KT 5SM -SHRA BR OVC015
     FM020500 03008KT 4SM -SHRA BR OVC008=

USA.gov is the U.S. government's official web portal to all federal, state and local government web resources and services.